Oswegatchie, New York
Current Conditions -  °F | °C
As of 5:05 PM on Tuesday 25 Nov 2014 (Local Time) from KGTB Reporting Station
Drizzle Drizzle  
Wind Chill: 29°   Ceiling: 900
Heat Index: 36°   Visibility: 9mi
Dew Point: 32°   Wind: 9mph
Humidity: 87%   Direction: 270°W
Pressure: 29.97"   Gusts: 26mph
Location:  44.18°N, 75.07°W
Report Text: KGTB 252205Z AUTO 27008G23KT 9SM -DZ OVC009 02/00 A2997 RMK AO2 OVC V BKN
Loading
Personal Weather Stations






























Interactive Weather Map New forecast layout! Learn more

10-Day Weather Forecast

Advertisements
Track Severe Weather on mobile